createdAt,value
2022-11-17T00:01:22.241Z,4.40
2022-11-17T00:03:49.849Z,4.40
2022-11-17T00:06:17.854Z,4.40
2022-11-17T00:08:44.656Z,4.50
2022-11-17T00:11:11.273Z,4.40
2022-11-17T00:13:56.242Z,4.40
2022-11-17T00:16:22.932Z,4.30
2022-11-17T00:19:08.451Z,4.30
2022-11-17T00:21:35.112Z,4.30
2022-11-17T00:24:01.943Z,4.30
2022-11-17T00:26:30.704Z,4.30
2022-11-17T00:29:06.380Z,4.30
2022-11-17T00:31:52.880Z,4.30
2022-11-17T00:34:23.547Z,4.30
2022-11-17T00:36:52.646Z,4.30
2022-11-17T00:39:21.308Z,4.30
2022-11-17T00:41:48.199Z,4.30
2022-11-17T00:44:15.452Z,4.20
2022-11-17T00:46:43.052Z,4.20
2022-11-17T00:49:11.086Z,4.30
2022-11-17T00:51:38.282Z,4.30
2022-11-17T00:54:06.156Z,4.30
2022-11-17T00:56:32.987Z,4.20
2022-11-17T00:59:00.211Z,4.20
2022-11-17T01:01:27.213Z,4.20
2022-11-17T01:04:03.493Z,4.20
2022-11-17T01:06:36.501Z,4.20
2022-11-17T01:09:24.176Z,4.20
2022-11-17T01:11:52.333Z,4.20
2022-11-17T01:14:22.263Z,4.20
2022-11-17T01:16:49.523Z,4.20
2022-11-17T01:19:16.928Z,4.10
2022-11-17T01:21:44.109Z,4.10
2022-11-17T01:24:11.873Z,4.10
2022-11-17T01:26:39.566Z,4.10
2022-11-17T01:29:07.743Z,4.20
2022-11-17T01:31:43.470Z,4.20
2022-11-17T01:34:10.702Z,4.20
2022-11-17T01:36:58.464Z,4.20
2022-11-17T01:39:26.782Z,4.30
2022-11-17T01:41:54.163Z,4.30
2022-11-17T01:44:54.643Z,4.20
2022-11-17T01:47:26.111Z,4.20
2022-11-17T01:49:59.056Z,4.20
2022-11-17T01:52:28.537Z,4.30
2022-11-17T01:54:56.817Z,4.20
2022-11-17T01:57:46.668Z,4.20
2022-11-17T02:00:14.190Z,4.20
2022-11-17T02:02:41.978Z,4.20
2022-11-17T02:05:14.416Z,4.30
2022-11-17T02:07:43.056Z,4.20
2022-11-17T02:10:09.714Z,4.20
2022-11-17T02:12:37.022Z,4.30
2022-11-17T02:15:04.977Z,4.20
2022-11-17T02:17:42.362Z,4.20
2022-11-17T02:20:20.243Z,4.20
2022-11-17T02:23:43.494Z,4.20
2022-11-17T02:26:47.764Z,4.30
2022-11-17T02:29:40.473Z,4.20
2022-11-17T02:32:16.318Z,4.20
2022-11-17T02:34:58.547Z,4.30
2022-11-17T02:37:55.335Z,4.20
2022-11-17T02:40:31.057Z,4.30
2022-11-17T02:43:19.562Z,4.20
2022-11-17T02:45:56.788Z,4.20
2022-11-17T02:48:30.919Z,4.20
2022-11-17T02:50:58.212Z,4.20
2022-11-17T02:53:27.111Z,4.20
2022-11-17T02:55:54.116Z,4.20
2022-11-17T02:58:21.622Z,4.30
2022-11-17T03:01:02.931Z,4.30
2022-11-17T03:03:38.652Z,4.20
2022-11-17T03:06:37.432Z,4.20
2022-11-17T03:09:19.804Z,4.20
2022-11-17T03:11:59.315Z,4.20
2022-11-17T03:14:35.287Z,4.20
2022-11-17T03:17:04.613Z,4.20
2022-11-17T03:19:41.413Z,4.20
2022-11-17T03:22:16.097Z,4.20
2022-11-17T03:24:49.389Z,4.20
2022-11-17T03:27:27.719Z,4.20
2022-11-17T03:29:58.505Z,4.20
2022-11-17T03:32:27.459Z,4.20
2022-11-17T03:35:03.074Z,4.20
2022-11-17T03:37:34.362Z,4.20
2022-11-17T03:40:07.290Z,4.20
2022-11-17T03:42:36.422Z,4.20
2022-11-17T03:45:11.838Z,4.20
2022-11-17T03:47:39.560Z,4.20
2022-11-17T03:50:09.920Z,4.20
2022-11-17T03:52:38.033Z,4.20
2022-11-17T03:55:05.943Z,4.20
2022-11-17T03:57:46.088Z,4.20
2022-11-17T04:00:15.757Z,4.20
2022-11-17T04:02:47.947Z,4.20
2022-11-17T04:05:16.601Z,4.20
2022-11-17T04:07:47.797Z,4.10
2022-11-17T04:10:19.948Z,4.10
2022-11-17T04:13:06.550Z,4.10
2022-11-17T04:15:52.058Z,4.20
2022-11-17T04:18:19.496Z,4.20
2022-11-17T04:20:49.226Z,4.20
2022-11-17T04:23:16.192Z,4.20
2022-11-17T04:26:09.688Z,4.20
2022-11-17T04:29:07.158Z,4.20
2022-11-17T04:31:33.948Z,4.20
2022-11-17T04:34:03.108Z,4.20
2022-11-17T04:36:32.679Z,4.20
2022-11-17T04:39:00.304Z,4.30
2022-11-17T04:41:47.705Z,4.20
2022-11-17T04:44:16.481Z,4.20
2022-11-17T04:46:44.612Z,4.30
2022-11-17T04:49:11.637Z,4.30
2022-11-17T04:51:38.985Z,4.20
2022-11-17T04:54:07.644Z,4.30
2022-11-17T04:56:34.911Z,4.30
2022-11-17T04:59:01.683Z,4.30
2022-11-17T05:01:28.478Z,4.30
2022-11-17T05:04:00.293Z,4.30
2022-11-17T05:06:32.842Z,4.30
2022-11-17T05:09:01.791Z,4.30
2022-11-17T05:11:48.539Z,4.30
2022-11-17T05:14:17.270Z,4.30
2022-11-17T05:17:08.652Z,4.30
2022-11-17T05:19:42.399Z,4.30
2022-11-17T05:22:28.792Z,4.40
2022-11-17T05:24:55.690Z,4.40
2022-11-17T05:27:23.862Z,4.40
2022-11-17T05:29:50.540Z,4.40
2022-11-17T05:32:17.438Z,4.40
2022-11-17T05:34:44.092Z,4.40
2022-11-17T05:37:10.728Z,4.50
2022-11-17T05:39:37.383Z,4.40
2022-11-17T05:42:04.316Z,4.40
2022-11-17T05:44:31.031Z,4.50
2022-11-17T05:46:57.918Z,4.40
2022-11-17T05:49:24.567Z,4.40
2022-11-17T05:51:52.910Z,4.40
2022-11-17T05:54:20.075Z,4.50
2022-11-17T05:56:52.176Z,4.50
2022-11-17T05:59:28.240Z,4.50
2022-11-17T06:02:06.779Z,4.50
2022-11-17T06:04:34.389Z,4.50
2022-11-17T06:07:01.606Z,4.50
2022-11-17T06:09:32.656Z,4.50
2022-11-17T06:12:04.352Z,4.60
2022-11-17T06:14:33.636Z,4.60
2022-11-17T06:17:04.479Z,4.60
2022-11-17T06:19:38.113Z,4.60
2022-11-17T06:22:12.321Z,4.60
2022-11-17T06:24:40.889Z,4.60
2022-11-17T06:27:07.722Z,4.60
2022-11-17T06:29:38.213Z,4.70
2022-11-17T06:32:07.600Z,4.60
2022-11-17T06:34:35.002Z,4.60
2022-11-17T06:37:01.591Z,4.60
2022-11-17T06:39:28.180Z,4.60
2022-11-17T06:41:54.768Z,4.70
2022-11-17T06:44:21.408Z,4.70
2022-11-17T06:46:49.364Z,4.70
2022-11-17T06:49:16.255Z,4.70
2022-11-17T06:51:45.414Z,4.70
2022-11-17T06:54:14.491Z,4.70
2022-11-17T06:56:41.538Z,4.70
2022-11-17T06:59:08.276Z,4.70
2022-11-17T07:01:34.967Z,4.80
2022-11-17T07:04:01.633Z,4.80
2022-11-17T07:06:28.287Z,4.80
2022-11-17T07:08:54.934Z,4.80
2022-11-17T07:11:21.557Z,4.80
2022-11-17T07:13:48.158Z,4.80
2022-11-17T07:16:22.952Z,4.70
2022-11-17T07:18:50.883Z,4.80
2022-11-17T07:21:18.032Z,4.80
2022-11-17T07:23:45.676Z,4.80
2022-11-17T07:26:12.494Z,4.80
2022-11-17T07:28:39.343Z,4.80
2022-11-17T07:31:08.268Z,4.80
2022-11-17T07:33:35.784Z,4.90
2022-11-17T07:36:07.752Z,4.80
2022-11-17T07:38:35.686Z,4.90
2022-11-17T07:41:04.101Z,4.80
2022-11-17T07:43:31.201Z,4.90
2022-11-17T07:45:57.927Z,4.90
2022-11-17T07:48:24.741Z,4.90
2022-11-17T07:50:51.612Z,4.90
2022-11-17T07:53:18.261Z,4.90
2022-11-17T07:55:44.957Z,4.90
2022-11-17T07:58:11.780Z,4.90
2022-11-17T08:00:38.451Z,4.90
2022-11-17T08:03:05.531Z,4.90
2022-11-17T08:05:41.606Z,4.90
2022-11-17T08:08:10.161Z,5.00
2022-11-17T08:10:36.918Z,5.00
2022-11-17T08:13:03.672Z,5.00
2022-11-17T08:15:31.145Z,5.00
2022-11-17T08:18:00.243Z,5.00
2022-11-17T08:20:29.239Z,5.10
2022-11-17T08:22:56.540Z,5.10
2022-11-17T08:25:25.148Z,5.00
2022-11-17T08:27:55.549Z,5.00
2022-11-17T08:30:22.771Z,5.00
2022-11-17T08:32:52.041Z,5.10
2022-11-17T08:35:20.470Z,5.10
2022-11-17T08:37:47.301Z,5.00
2022-11-17T08:40:15.092Z,5.00
2022-11-17T08:42:41.849Z,5.10
2022-11-17T08:45:09.171Z,5.10
2022-11-17T08:47:35.898Z,5.10
2022-11-17T08:50:03.713Z,5.10
2022-11-17T08:52:30.626Z,5.00
2022-11-17T08:54:57.379Z,5.10
2022-11-17T08:57:24.208Z,5.10
2022-11-17T08:59:50.971Z,5.10
2022-11-17T09:02:17.875Z,5.10
2022-11-17T09:04:46.137Z,5.10
2022-11-17T09:07:12.925Z,5.10
2022-11-17T09:09:39.859Z,5.10
2022-11-17T09:12:06.825Z,5.10
2022-11-17T09:14:33.859Z,5.10
2022-11-17T09:17:00.580Z,5.10
2022-11-17T09:19:27.317Z,5.10
2022-11-17T09:21:54.004Z,5.20
2022-11-17T09:24:20.680Z,5.20
2022-11-17T09:26:47.297Z,5.20
2022-11-17T09:29:14.280Z,5.20
2022-11-17T09:31:41.210Z,5.20
2022-11-17T09:34:08.123Z,5.30
2022-11-17T09:36:34.987Z,5.30
2022-11-17T09:39:01.652Z,5.30
2022-11-17T09:41:43.368Z,5.30
2022-11-17T09:44:31.578Z,5.30
2022-11-17T09:47:14.189Z,5.40
2022-11-17T09:49:53.627Z,5.40
2022-11-17T09:52:58.306Z,5.40
2022-11-17T09:55:46.082Z,5.40
2022-11-17T09:58:19.738Z,5.40
2022-11-17T10:00:48.911Z,5.40
2022-11-17T10:03:21.531Z,5.40
2022-11-17T10:05:48.849Z,5.40
2022-11-17T10:08:20.659Z,5.50
2022-11-17T10:10:49.983Z,5.50
2022-11-17T10:13:33.587Z,5.50
2022-11-17T10:16:12.085Z,5.40
2022-11-17T10:18:39.557Z,5.50
2022-11-17T10:21:08.191Z,5.40
2022-11-17T10:23:47.024Z,5.50
2022-11-17T10:26:15.394Z,5.50
2022-11-17T10:28:42.209Z,5.50
2022-11-17T10:31:17.507Z,5.40
2022-11-17T10:33:49.471Z,5.50
2022-11-17T10:36:27.170Z,5.50
2022-11-17T10:38:55.871Z,5.50
2022-11-17T10:41:37.412Z,5.50
2022-11-17T10:44:11.906Z,5.60
2022-11-17T10:47:32.838Z,5.50
2022-11-17T10:50:20.762Z,5.60
2022-11-17T10:52:48.080Z,5.50
2022-11-17T10:55:19.145Z,5.50
2022-11-17T10:57:49.948Z,5.50
2022-11-17T11:00:31.780Z,5.40
2022-11-17T11:03:05.940Z,5.40
2022-11-17T11:05:32.934Z,5.50
2022-11-17T11:08:18.293Z,5.50
2022-11-17T11:10:48.972Z,5.50
2022-11-17T11:13:34.166Z,5.50
2022-11-17T11:16:00.855Z,5.50
2022-11-17T11:18:30.219Z,5.50
2022-11-17T11:21:22.484Z,5.50
2022-11-17T11:24:21.753Z,5.60
2022-11-17T11:27:07.881Z,5.60
2022-11-17T11:29:56.491Z,5.50
2022-11-17T11:32:40.099Z,5.50
2022-11-17T11:35:33.314Z,5.50
2022-11-17T11:38:18.697Z,5.50
2022-11-17T11:41:23.085Z,5.50
2022-11-17T11:44:01.733Z,5.50
2022-11-17T11:47:06.878Z,5.50
2022-11-17T11:49:49.071Z,5.50
2022-11-17T11:52:20.720Z,5.50
2022-11-17T11:55:05.304Z,5.50
2022-11-17T11:57:46.773Z,5.50
2022-11-17T12:00:17.848Z,5.50
2022-11-17T12:02:58.487Z,5.50
2022-11-17T12:05:47.957Z,5.50
2022-11-17T12:08:23.620Z,5.50
2022-11-17T12:11:00.476Z,5.50
2022-11-17T12:13:27.707Z,5.50
2022-11-17T12:16:27.538Z,5.60
2022-11-17T12:18:54.185Z,5.60
2022-11-17T12:21:25.705Z,5.60
2022-11-17T12:24:14.873Z,5.60
2022-11-17T12:26:41.842Z,5.60
2022-11-17T12:29:20.448Z,5.50
2022-11-17T12:31:48.995Z,5.60
2022-11-17T12:34:22.988Z,5.50
2022-11-17T12:37:18.662Z,5.50
2022-11-17T12:40:03.191Z,5.50
2022-11-17T12:42:32.083Z,5.50
2022-11-17T12:45:00.762Z,5.50
2022-11-17T12:47:36.354Z,5.50
2022-11-17T12:50:19.444Z,5.50
2022-11-17T12:53:01.045Z,5.50
2022-11-17T12:55:44.527Z,5.50
2022-11-17T12:58:35.538Z,5.50
2022-11-17T13:01:33.033Z,5.50
2022-11-17T13:04:06.461Z,5.40
2022-11-17T13:06:35.838Z,5.50
2022-11-17T13:09:06.829Z,5.60
2022-11-17T13:11:34.475Z,5.50
2022-11-17T13:14:13.517Z,5.50
2022-11-17T13:16:51.533Z,5.50
2022-11-17T13:19:33.144Z,5.50
2022-11-17T13:22:05.855Z,5.50
2022-11-17T13:24:36.160Z,5.50
2022-11-17T13:27:08.994Z,5.50
2022-11-17T13:29:35.941Z,5.50
2022-11-17T13:32:23.165Z,5.40
2022-11-17T13:34:59.906Z,5.40
2022-11-17T13:37:30.352Z,5.40
2022-11-17T13:40:15.746Z,5.40
2022-11-17T13:42:42.505Z,5.40
2022-11-17T13:45:14.940Z,5.30
2022-11-17T13:47:49.616Z,5.40
2022-11-17T13:50:32.320Z,5.30
2022-11-17T13:53:00.224Z,5.30
2022-11-17T13:55:27.911Z,5.30
2022-11-17T13:58:23.348Z,5.30
2022-11-17T14:00:54.467Z,5.30
2022-11-17T14:03:47.286Z,5.20
2022-11-17T14:06:14.419Z,5.20
2022-11-17T14:08:43.170Z,5.10
2022-11-17T14:11:09.755Z,5.10
2022-11-17T14:13:58.804Z,5.20
2022-11-17T14:16:28.937Z,5.10
2022-11-17T14:18:56.892Z,5.10
2022-11-17T14:21:23.545Z,5.10
2022-11-17T14:24:00.104Z,5.00
2022-11-17T14:26:26.968Z,5.10
2022-11-17T14:28:53.843Z,5.00
2022-11-17T14:31:20.680Z,5.00
2022-11-17T14:33:47.491Z,5.10
2022-11-17T14:36:16.530Z,5.00
2022-11-17T14:38:44.838Z,5.00
2022-11-17T14:41:11.532Z,5.00
2022-11-17T14:43:38.163Z,5.10
2022-11-17T14:46:05.216Z,5.00
2022-11-17T14:48:31.892Z,5.10
2022-11-17T14:51:00.116Z,5.10
2022-11-17T14:53:27.254Z,5.00
2022-11-17T14:55:54.062Z,5.00
2022-11-17T14:58:20.846Z,5.00
2022-11-17T15:00:47.634Z,5.00
2022-11-17T15:03:14.381Z,5.00
2022-11-17T15:05:46.149Z,4.90
2022-11-17T15:08:13.324Z,4.90
2022-11-17T15:10:46.100Z,4.90
2022-11-17T15:13:12.736Z,4.80
2022-11-17T15:15:39.488Z,4.80
2022-11-17T15:18:06.531Z,4.90
2022-11-17T15:20:33.228Z,4.80
2022-11-17T15:23:03.183Z,4.80
2022-11-17T15:25:30.674Z,4.90
2022-11-17T15:27:57.405Z,4.80
2022-11-17T15:30:24.088Z,4.80
2022-11-17T15:32:50.743Z,4.80
2022-11-17T15:35:17.391Z,4.80
2022-11-17T15:37:43.981Z,4.80
2022-11-17T15:40:13.926Z,4.80
2022-11-17T15:42:43.050Z,4.90
2022-11-17T15:45:10.136Z,4.80
2022-11-17T15:47:36.722Z,4.80
2022-11-17T15:50:03.593Z,4.80
2022-11-17T15:52:56.657Z,4.80
2022-11-17T15:55:16.927Z,4.80
2022-11-17T15:57:43.534Z,4.80
2022-11-17T16:00:11.608Z,4.80
2022-11-17T16:02:40.917Z,4.80
2022-11-17T16:05:07.862Z,4.80
2022-11-17T16:07:34.596Z,4.80
2022-11-17T16:10:01.272Z,4.70
2022-11-17T16:12:27.887Z,4.70
2022-11-17T16:14:54.512Z,4.70
2022-11-17T16:17:21.105Z,4.70
2022-11-17T16:19:47.702Z,4.70
2022-11-17T16:22:14.347Z,4.60
2022-11-17T16:24:40.930Z,4.60
2022-11-17T16:27:07.518Z,4.50
2022-11-17T16:29:34.252Z,4.50
2022-11-17T16:32:00.857Z,4.40
2022-11-17T16:34:27.481Z,4.40
2022-11-17T16:36:54.082Z,4.40
2022-11-17T16:39:20.928Z,4.40
2022-11-17T16:41:50.238Z,4.40
2022-11-17T16:44:18.149Z,4.40
2022-11-17T16:46:47.253Z,4.40
2022-11-17T16:49:16.845Z,4.40
2022-11-17T16:51:48.357Z,4.30
2022-11-17T16:54:15.613Z,4.30
2022-11-17T16:56:42.404Z,4.30
2022-11-17T16:59:11.347Z,4.30
2022-11-17T17:01:38.640Z,4.30
2022-11-17T17:04:07.583Z,4.30
2022-11-17T17:06:37.114Z,4.30
2022-11-17T17:09:06.686Z,4.30
2022-11-17T17:11:35.688Z,4.30
2022-11-17T17:14:04.703Z,4.30
2022-11-17T17:16:33.420Z,4.30
2022-11-17T17:19:01.740Z,4.30
2022-11-17T17:21:29.554Z,4.20
2022-11-17T17:23:56.611Z,4.30
2022-11-17T17:26:26.875Z,4.20
2022-11-17T17:28:55.084Z,4.20
2022-11-17T17:31:22.672Z,4.20
2022-11-17T17:33:50.769Z,4.20
2022-11-17T17:36:19.883Z,4.20
2022-11-17T17:38:50.285Z,4.20
2022-11-17T17:41:22.334Z,4.20
2022-11-17T17:44:04.307Z,4.10
2022-11-17T17:46:33.860Z,4.10
2022-11-17T17:49:00.707Z,4.20
2022-11-17T17:51:28.983Z,4.20
2022-11-17T17:53:58.258Z,4.10
2022-11-17T17:56:25.542Z,4.10
2022-11-17T17:58:54.937Z,4.10
2022-11-17T18:01:24.486Z,4.00
2022-11-17T18:03:53.696Z,4.00
2022-11-17T18:06:22.495Z,4.00
2022-11-17T18:08:49.925Z,4.00
2022-11-17T18:11:19.543Z,3.90
2022-11-17T18:13:48.446Z,3.90
2022-11-17T18:16:17.952Z,3.90
2022-11-17T18:18:47.749Z,3.90
2022-11-17T18:21:16.938Z,3.90
2022-11-17T18:23:43.908Z,3.90
2022-11-17T18:26:11.931Z,3.80
2022-11-17T18:28:39.543Z,3.90
2022-11-17T18:31:08.045Z,3.90
2022-11-17T18:33:35.299Z,3.80
2022-11-17T18:36:07.264Z,3.80
2022-11-17T18:38:36.027Z,3.80
2022-11-17T18:41:12.315Z,3.80
2022-11-17T18:43:39.131Z,3.80
2022-11-17T18:46:11.314Z,3.80
2022-11-17T18:48:39.968Z,3.80
2022-11-17T18:51:24.036Z,3.80
2022-11-17T18:53:52.228Z,3.80
2022-11-17T18:56:26.845Z,3.80
2022-11-17T18:58:53.590Z,3.80
2022-11-17T19:01:26.295Z,3.80
2022-11-17T19:03:54.794Z,3.80
2022-11-17T19:06:23.316Z,3.80
2022-11-17T19:08:50.744Z,3.80
2022-11-17T19:11:20.010Z,3.80
2022-11-17T19:13:46.975Z,3.80
2022-11-17T19:16:16.591Z,3.70
2022-11-17T19:18:44.630Z,3.70
2022-11-17T19:21:14.321Z,3.70
2022-11-17T19:23:47.999Z,3.70
2022-11-17T19:26:19.720Z,3.60
2022-11-17T19:28:46.536Z,3.60
2022-11-17T19:31:18.798Z,3.60
2022-11-17T19:33:47.063Z,3.50
2022-11-17T19:36:22.078Z,3.50
2022-11-17T19:38:53.099Z,3.40
2022-11-17T19:41:25.207Z,3.40
2022-11-17T19:43:56.264Z,3.30
2022-11-17T19:46:24.409Z,3.40
2022-11-17T19:48:51.066Z,3.30
2022-11-17T19:51:26.353Z,3.30
2022-11-17T19:53:54.955Z,3.30
2022-11-17T19:56:22.947Z,3.20
2022-11-17T19:58:50.313Z,3.20
2022-11-17T20:01:19.256Z,3.20
2022-11-17T20:03:46.622Z,3.20
2022-11-17T20:06:27.158Z,3.20
2022-11-17T20:08:55.163Z,3.20
2022-11-17T20:11:24.665Z,3.10
2022-11-17T20:13:51.445Z,3.10
2022-11-17T20:16:21.434Z,3.10
2022-11-17T20:18:53.460Z,3.10
2022-11-17T20:21:20.215Z,3.00
2022-11-17T20:23:47.254Z,3.10
2022-11-17T20:26:19.932Z,3.10
2022-11-17T20:28:47.866Z,3.00
2022-11-17T20:31:17.003Z,3.00
2022-11-17T20:33:43.792Z,3.10
2022-11-17T20:36:19.329Z,3.00
2022-11-17T20:38:50.126Z,3.00
2022-11-17T20:41:17.138Z,3.00
2022-11-17T20:43:48.296Z,2.90
2022-11-17T20:46:14.894Z,2.90
2022-11-17T20:48:41.696Z,3.00
2022-11-17T20:51:14.529Z,3.00
2022-11-17T20:53:41.453Z,3.00
2022-11-17T20:56:10.700Z,3.00
2022-11-17T20:58:37.742Z,3.00
2022-11-17T21:01:08.729Z,3.00
2022-11-17T21:03:35.519Z,3.00
2022-11-17T21:06:03.345Z,3.00
2022-11-17T21:08:32.265Z,3.00
2022-11-17T21:11:07.354Z,3.00
2022-11-17T21:13:35.121Z,3.00
2022-11-17T21:16:03.915Z,2.90
2022-11-17T21:18:30.630Z,3.00
2022-11-17T21:21:00.419Z,3.00
2022-11-17T21:23:27.796Z,2.90
2022-11-17T21:25:54.428Z,3.00
2022-11-17T21:28:21.147Z,3.00
2022-11-17T21:30:47.812Z,3.00
2022-11-17T21:33:14.458Z,3.00
2022-11-17T21:35:41.091Z,3.00
2022-11-17T21:38:08.868Z,3.00
2022-11-17T21:40:35.518Z,2.90
2022-11-17T21:43:02.208Z,2.90
2022-11-17T21:45:28.829Z,2.90
2022-11-17T21:47:59.421Z,3.00
2022-11-17T21:50:26.503Z,3.00
2022-11-17T21:52:53.077Z,2.90
2022-11-17T21:55:19.793Z,2.90
2022-11-17T21:57:50.131Z,2.80
2022-11-17T22:00:17.861Z,2.80
2022-11-17T22:02:44.482Z,2.80
2022-11-17T22:05:11.480Z,2.90
2022-11-17T22:07:38.103Z,2.80
2022-11-17T22:10:05.339Z,2.80
2022-11-17T22:12:31.916Z,2.80
2022-11-17T22:14:58.545Z,2.70
2022-11-17T22:17:25.206Z,2.70
2022-11-17T22:19:51.826Z,2.80
2022-11-17T22:22:18.436Z,2.80
2022-11-17T22:24:49.592Z,2.80
2022-11-17T22:27:16.501Z,2.80
2022-11-17T22:29:43.150Z,2.70
2022-11-17T22:32:09.788Z,2.70
2022-11-17T22:34:36.399Z,2.70
2022-11-17T22:37:02.998Z,2.70
2022-11-17T22:39:29.721Z,2.70
2022-11-17T22:41:56.310Z,2.70
2022-11-17T22:44:22.929Z,2.70
2022-11-17T22:46:49.568Z,2.70
2022-11-17T22:49:16.352Z,2.70
2022-11-17T22:52:01.937Z,2.70
2022-11-17T22:54:28.783Z,2.70
2022-11-17T22:56:55.387Z,2.70
2022-11-17T22:59:25.752Z,2.70
2022-11-17T23:01:52.512Z,2.70
2022-11-17T23:04:19.500Z,2.70
2022-11-17T23:06:46.283Z,2.70
2022-11-17T23:09:13.439Z,2.70
2022-11-17T23:11:40.192Z,2.70
2022-11-17T23:14:09.621Z,2.70
2022-11-17T23:16:37.407Z,2.60
2022-11-17T23:19:05.263Z,2.60
2022-11-17T23:21:32.157Z,2.60
2022-11-17T23:23:58.917Z,2.60
2022-11-17T23:26:25.542Z,2.60
2022-11-17T23:28:52.331Z,2.60
2022-11-17T23:31:21.371Z,2.60
2022-11-17T23:33:48.620Z,2.60
2022-11-17T23:36:21.243Z,2.60
2022-11-17T23:38:49.050Z,2.60
2022-11-17T23:41:19.155Z,2.60
2022-11-17T23:43:45.900Z,2.60
2022-11-17T23:46:14.997Z,2.50
2022-11-17T23:48:42.588Z,2.50
2022-11-17T23:51:14.523Z,2.60
2022-11-17T23:53:41.280Z,2.60
2022-11-17T23:56:08.651Z,2.50
2022-11-17T23:58:35.807Z,2.50
